createdAt,value
2019-03-23T00:00:01.328Z,4.40
2019-03-23T00:02:29.773Z,8.87
2019-03-23T00:04:58.235Z,6.00
2019-03-23T00:07:26.698Z,4.57
2019-03-23T00:09:55.213Z,7.37
2019-03-23T00:12:23.654Z,4.57
2019-03-23T00:14:52.126Z,5.27
2019-03-23T00:17:20.573Z,4.83
2019-03-23T00:19:49.104Z,4.40
2019-03-23T00:22:17.544Z,7.10
2019-03-23T00:24:46.070Z,6.60
2019-03-23T00:27:14.511Z,4.27
2019-03-23T00:29:42.946Z,3.93
2019-03-23T00:32:11.403Z,7.60
2019-03-23T00:34:39.831Z,5.23
2019-03-23T00:37:08.273Z,7.10
2019-03-23T00:39:36.726Z,7.40
2019-03-23T00:42:05.158Z,4.67
2019-03-23T00:44:33.623Z,3.90
2019-03-23T00:47:02.072Z,3.87
2019-03-23T00:49:30.520Z,4.37
2019-03-23T00:51:58.976Z,4.50
2019-03-23T00:54:27.411Z,5.90
2019-03-23T00:56:55.881Z,3.90
2019-03-23T00:59:24.317Z,5.20
2019-03-23T01:01:52.776Z,4.00
2019-03-23T01:04:21.215Z,4.80
2019-03-23T01:06:52.417Z,5.70
2019-03-23T01:09:20.081Z,6.43
2019-03-23T01:11:48.533Z,4.47
2019-03-23T01:14:16.964Z,3.70
2019-03-23T01:16:45.422Z,5.00
2019-03-23T01:19:13.862Z,5.07
2019-03-23T01:21:42.327Z,3.80
2019-03-23T01:24:10.837Z,9.13
2019-03-23T01:26:39.274Z,6.70
2019-03-23T01:29:07.756Z,6.43
2019-03-23T01:31:36.211Z,6.07
2019-03-23T01:34:04.643Z,9.60
2019-03-23T01:36:33.087Z,6.07
2019-03-23T01:39:01.546Z,6.67
2019-03-23T01:41:29.984Z,9.77
2019-03-23T01:43:58.435Z,9.20
2019-03-23T01:46:27.153Z,6.60
2019-03-23T01:48:55.666Z,5.53
2019-03-23T01:51:24.192Z,3.70
2019-03-23T01:53:52.638Z,4.50
2019-03-23T01:56:21.159Z,5.80
2019-03-23T01:58:49.598Z,5.97
2019-03-23T02:01:18.040Z,8.83
2019-03-23T02:03:46.551Z,6.07
2019-03-23T02:06:14.978Z,7.40
2019-03-23T02:08:43.416Z,4.70
2019-03-23T02:11:11.850Z,5.13
2019-03-23T02:13:40.296Z,5.03
2019-03-23T02:16:08.726Z,4.33
2019-03-23T02:18:37.182Z,5.80
2019-03-23T02:21:05.703Z,3.80
2019-03-23T02:23:34.137Z,9.43
2019-03-23T02:26:02.641Z,6.73
2019-03-23T02:28:31.085Z,9.57
2019-03-23T02:30:59.548Z,8.40
2019-03-23T02:33:28.001Z,5.77
2019-03-23T02:35:56.550Z,4.87
2019-03-23T02:38:25.046Z,5.40
2019-03-23T02:40:53.525Z,4.97
2019-03-23T02:43:21.973Z,9.03
2019-03-23T02:45:50.447Z,7.37
2019-03-23T02:48:18.877Z,7.23
2019-03-23T02:50:47.327Z,13.50
2019-03-23T02:53:15.763Z,5.00
2019-03-23T02:55:44.209Z,8.50
2019-03-23T02:58:12.675Z,9.83
2019-03-23T03:00:41.117Z,8.90
2019-03-23T03:03:09.627Z,7.60
2019-03-23T03:05:38.071Z,7.50
2019-03-23T03:08:06.531Z,6.83
2019-03-23T03:10:41.854Z,8.47
2019-03-23T03:13:10.415Z,10.37
2019-03-23T03:15:38.923Z,6.97
2019-03-23T03:18:07.923Z,8.03
2019-03-23T03:20:36.442Z,9.33
2019-03-23T03:23:05.061Z,10.87
2019-03-23T03:25:33.581Z,8.40
2019-03-23T03:28:02.155Z,8.90
2019-03-23T03:30:30.596Z,10.87
2019-03-23T03:32:59.049Z,12.90
2019-03-23T03:35:27.488Z,8.17
2019-03-23T03:37:57.243Z,13.60
2019-03-23T03:40:25.953Z,10.97
2019-03-23T03:42:54.392Z,16.63
2019-03-23T03:45:25.989Z,12.43
2019-03-23T03:47:54.521Z,13.07
2019-03-23T03:50:22.985Z,12.77
2019-03-23T03:52:51.472Z,10.07
2019-03-23T03:55:19.909Z,18.57
2019-03-23T03:57:48.370Z,12.30
2019-03-23T04:00:17.067Z,11.90
2019-03-23T04:02:45.517Z,15.63
2019-03-23T04:05:14.159Z,15.40
2019-03-23T04:07:42.592Z,10.47
2019-03-23T04:10:11.098Z,13.20
2019-03-23T04:12:39.544Z,12.47
2019-03-23T04:15:09.425Z,10.40
2019-03-23T04:17:37.867Z,11.50
2019-03-23T04:20:06.654Z,11.90
2019-03-23T04:22:35.166Z,13.97
2019-03-23T04:25:05.647Z,12.80
2019-03-23T04:27:34.222Z,10.67
2019-03-23T04:30:02.754Z,8.53
2019-03-23T04:32:31.186Z,10.77
2019-03-23T04:34:59.646Z,11.07
2019-03-23T04:37:28.085Z,9.90
2019-03-23T04:39:56.537Z,13.63
2019-03-23T04:42:24.987Z,12.20
2019-03-23T04:44:53.470Z,14.10
2019-03-23T04:47:21.977Z,21.63
2019-03-23T04:49:50.420Z,20.40
2019-03-23T04:52:18.852Z,27.03
2019-03-23T04:54:47.323Z,23.80
2019-03-23T04:57:15.775Z,27.17
2019-03-23T04:59:45.154Z,27.03
2019-03-23T05:02:13.605Z,27.13
2019-03-23T05:04:42.053Z,37.57
2019-03-23T05:07:10.493Z,33.40
2019-03-23T05:09:39.032Z,37.40
2019-03-23T05:12:07.491Z,37.27
2019-03-23T05:14:35.935Z,39.57
2019-03-23T05:17:04.384Z,35.20
2019-03-23T05:19:32.826Z,44.37
2019-03-23T05:22:01.287Z,38.73
2019-03-23T05:24:29.743Z,48.20
2019-03-23T05:26:58.191Z,47.17
2019-03-23T05:29:26.786Z,48.63
2019-03-23T05:31:55.234Z,53.67
2019-03-23T05:34:23.671Z,60.87
2019-03-23T05:36:52.130Z,53.50
2019-03-23T05:39:20.632Z,57.63
2019-03-23T05:41:49.111Z,64.43
2019-03-23T05:44:17.579Z,59.30
2019-03-23T05:46:46.030Z,59.67
2019-03-23T05:49:14.475Z,57.30
2019-03-23T05:51:42.947Z,65.73
2019-03-23T05:54:11.492Z,67.30
2019-03-23T05:56:40.066Z,55.33
2019-03-23T05:59:08.600Z,63.20
2019-03-23T06:01:37.160Z,53.27
2019-03-23T06:04:05.843Z,53.70
2019-03-23T06:06:34.352Z,64.70
2019-03-23T06:09:02.884Z,62.87
2019-03-23T06:11:31.345Z,60.60
2019-03-23T06:13:59.794Z,52.80
2019-03-23T06:16:28.243Z,52.47
2019-03-23T06:18:56.714Z,51.03
2019-03-23T06:21:25.219Z,62.37
2019-03-23T06:23:53.704Z,56.40
2019-03-23T06:26:22.170Z,50.50
2019-03-23T06:28:50.687Z,59.40
2019-03-23T06:31:19.150Z,62.53
2019-03-23T06:33:47.589Z,75.60
2019-03-23T06:36:16.056Z,61.47
2019-03-23T06:38:44.495Z,68.03
2019-03-23T06:41:12.975Z,63.90
2019-03-23T06:43:41.435Z,56.20
2019-03-23T06:46:09.910Z,63.23
2019-03-23T06:48:38.341Z,58.43
2019-03-23T06:51:06.824Z,61.63
2019-03-23T06:53:35.283Z,59.67
2019-03-23T06:56:03.756Z,64.93
2019-03-23T06:58:32.205Z,65.00
2019-03-23T07:01:00.730Z,57.47
2019-03-23T07:03:29.181Z,64.17
2019-03-23T07:05:57.889Z,60.93
2019-03-23T07:08:31.885Z,60.50
2019-03-23T07:10:56.569Z,66.23
2019-03-23T07:13:25.070Z,65.07
2019-03-23T07:15:53.537Z,73.53
2019-03-23T07:18:21.989Z,68.83
2019-03-23T07:20:50.445Z,62.90
2019-03-23T07:23:18.996Z,54.57
2019-03-23T07:25:47.434Z,70.67
2019-03-23T07:28:15.923Z,65.33
2019-03-23T07:30:44.436Z,55.80
2019-03-23T07:33:12.920Z,57.50
2019-03-23T07:35:41.378Z,66.80
2019-03-23T07:38:09.836Z,62.53
2019-03-23T07:40:38.286Z,58.23
2019-03-23T07:43:06.755Z,63.27
2019-03-23T07:45:35.189Z,60.90
2019-03-23T07:48:03.686Z,61.23
2019-03-23T07:50:32.122Z,60.87
2019-03-23T07:53:01.347Z,65.83
2019-03-23T07:55:29.790Z,56.80
2019-03-23T07:57:58.312Z,55.87
2019-03-23T08:00:26.787Z,64.90
2019-03-23T08:02:55.227Z,57.33
2019-03-23T08:05:23.710Z,49.13
2019-03-23T08:07:52.168Z,53.87
2019-03-23T08:10:31.586Z,50.87
2019-03-23T08:13:00.132Z,52.20
2019-03-23T08:15:28.750Z,52.20
2019-03-23T08:17:57.315Z,62.50
2019-03-23T08:20:25.806Z,56.40
2019-03-23T08:22:55.046Z,55.83
2019-03-23T08:25:23.515Z,63.67
2019-03-23T08:27:51.959Z,66.97
2019-03-23T08:30:20.529Z,74.37
2019-03-23T08:32:48.989Z,80.17
2019-03-23T08:35:17.461Z,81.90
2019-03-23T08:37:45.890Z,71.17
2019-03-23T08:40:14.439Z,81.27
2019-03-23T08:42:42.919Z,79.23
2019-03-23T08:45:11.450Z,83.97
2019-03-23T08:47:39.979Z,77.60
2019-03-23T08:50:09.185Z,75.57
2019-03-23T08:52:37.640Z,89.57
2019-03-23T08:55:06.443Z,82.87
2019-03-23T08:57:34.885Z,90.80
2019-03-23T09:00:03.580Z,78.90
2019-03-23T09:02:32.026Z,82.27
2019-03-23T09:05:00.778Z,78.10
2019-03-23T09:07:29.273Z,77.53
2019-03-23T09:09:59.492Z,78.57
2019-03-23T09:12:28.084Z,72.80
2019-03-23T09:14:56.546Z,74.67
2019-03-23T09:17:25.021Z,80.00
2019-03-23T09:19:53.534Z,88.00
2019-03-23T09:22:22.130Z,80.93
2019-03-23T09:24:50.617Z,89.83
2019-03-23T09:27:19.103Z,85.40
2019-03-23T09:29:47.611Z,71.90
2019-03-23T09:32:16.069Z,76.80
2019-03-23T09:34:44.619Z,75.10
2019-03-23T09:37:13.162Z,74.57
2019-03-23T09:39:41.604Z,76.90
2019-03-23T09:42:10.064Z,83.07
2019-03-23T09:44:38.579Z,77.60
2019-03-23T09:47:07.032Z,67.07
2019-03-23T09:49:35.501Z,76.97
2019-03-23T09:52:03.998Z,79.63
2019-03-23T09:54:32.468Z,72.87
2019-03-23T09:57:00.932Z,69.40
2019-03-23T09:59:29.388Z,67.30
2019-03-23T10:01:57.928Z,70.83
2019-03-23T10:04:26.386Z,65.27
2019-03-23T10:06:54.835Z,67.97
2019-03-23T10:09:23.414Z,63.47
2019-03-23T10:11:51.951Z,69.67
2019-03-23T10:14:20.426Z,67.73
2019-03-23T10:16:48.939Z,70.33
2019-03-23T10:19:17.435Z,73.77
2019-03-23T10:21:45.971Z,71.27
2019-03-23T10:24:14.452Z,71.70
2019-03-23T10:26:42.906Z,71.23
2019-03-23T10:29:11.361Z,71.30
2019-03-23T10:31:39.901Z,78.60
2019-03-23T10:34:08.665Z,69.20
2019-03-23T10:36:37.239Z,71.07
2019-03-23T10:39:06.525Z,60.77
2019-03-23T10:41:35.146Z,76.80
2019-03-23T10:44:03.662Z,71.77
2019-03-23T10:46:32.136Z,66.57
2019-03-23T10:49:01.062Z,70.10
2019-03-23T10:51:29.549Z,78.30
2019-03-23T10:53:58.918Z,81.60
2019-03-23T10:56:27.498Z,73.83
2019-03-23T10:58:55.976Z,83.30
2019-03-23T11:01:24.548Z,79.53
2019-03-23T11:03:53.034Z,92.23
2019-03-23T11:06:21.508Z,97.53
2019-03-23T11:08:50.045Z,95.17
2019-03-23T11:11:18.578Z,98.60
2019-03-23T11:13:47.087Z,94.50
2019-03-23T11:16:15.548Z,107.77
2019-03-23T11:18:44.069Z,99.97
2019-03-23T11:21:12.527Z,99.20
2019-03-23T11:23:41.180Z,112.70
2019-03-23T11:26:09.625Z,114.80
2019-03-23T11:28:38.256Z,118.33
2019-03-23T11:31:06.953Z,116.60
2019-03-23T11:33:35.986Z,114.07
2019-03-23T11:36:04.477Z,117.30
2019-03-23T11:38:32.946Z,117.13
2019-03-23T11:41:01.410Z,120.63
2019-03-23T11:43:29.920Z,117.53
2019-03-23T11:45:58.462Z,136.67
2019-03-23T11:48:26.987Z,127.60
2019-03-23T11:50:55.503Z,127.23
2019-03-23T11:53:24.019Z,139.03
2019-03-23T11:55:52.454Z,138.10
2019-03-23T11:58:20.914Z,137.37
2019-03-23T12:00:49.454Z,145.77
2019-03-23T12:03:18.247Z,141.60
2019-03-23T12:05:46.738Z,166.83
2019-03-23T12:08:15.203Z,148.50
2019-03-23T12:10:43.655Z,148.27
2019-03-23T12:13:12.111Z,160.33
2019-03-23T12:15:40.579Z,149.60
2019-03-23T12:18:09.110Z,169.63
2019-03-23T12:20:37.557Z,167.87
2019-03-23T12:23:06.042Z,190.60
2019-03-23T12:25:34.563Z,170.30
2019-03-23T12:28:03.076Z,163.80
2019-03-23T12:30:31.525Z,180.47
2019-03-23T12:32:59.982Z,179.53
2019-03-23T12:35:28.461Z,195.83
2019-03-23T12:37:57.014Z,178.10
2019-03-23T12:40:25.561Z,175.00
2019-03-23T12:42:54.073Z,187.20
2019-03-23T12:45:22.528Z,172.97
2019-03-23T12:47:51.004Z,168.27
2019-03-23T12:50:19.514Z,179.20
2019-03-23T12:52:47.970Z,183.37
2019-03-23T12:55:16.417Z,166.10
2019-03-23T12:57:45.111Z,171.03
2019-03-23T13:00:15.300Z,167.57
2019-03-23T13:02:43.898Z,158.67
2019-03-23T13:05:12.530Z,153.57
2019-03-23T13:07:41.062Z,160.53
2019-03-23T13:10:11.737Z,164.87
2019-03-23T13:12:40.307Z,162.07
2019-03-23T13:15:11.133Z,177.63
2019-03-23T13:17:39.679Z,169.30
2019-03-23T13:20:09.146Z,174.10
2019-03-23T13:22:37.677Z,187.53
2019-03-23T13:25:08.175Z,163.87
2019-03-23T13:27:36.806Z,158.70
2019-03-23T13:30:14.234Z,154.13
2019-03-23T13:32:42.696Z,171.83
2019-03-23T13:35:11.222Z,165.67
2019-03-23T13:37:39.769Z,151.97
2019-03-23T13:40:10.524Z,151.90
2019-03-23T13:42:39.092Z,133.43
2019-03-23T13:45:07.938Z,140.60
2019-03-23T13:47:36.433Z,149.30
2019-03-23T13:50:06.448Z,128.83
2019-03-23T13:52:35.200Z,123.17
2019-03-23T13:55:04.314Z,114.67
2019-03-23T13:57:32.778Z,113.20
2019-03-23T14:00:02.209Z,88.87
2019-03-23T14:02:30.729Z,97.90
2019-03-23T14:04:59.274Z,78.17
2019-03-23T14:07:27.753Z,88.17
2019-03-23T14:09:56.265Z,79.60
2019-03-23T14:12:24.726Z,71.83
2019-03-23T14:14:54.088Z,87.47
2019-03-23T14:17:22.532Z,79.17
2019-03-23T14:19:50.990Z,85.20
2019-03-23T14:22:19.456Z,79.63
2019-03-23T14:24:47.935Z,75.90
2019-03-23T14:27:16.384Z,69.47
2019-03-23T14:29:45.560Z,58.07
2019-03-23T14:32:14.117Z,59.30
2019-03-23T14:34:42.656Z,60.90
2019-03-23T14:37:11.103Z,69.70
2019-03-23T14:39:39.678Z,63.43
2019-03-23T14:42:08.182Z,49.43
2019-03-23T14:44:36.815Z,56.03
2019-03-23T14:47:05.257Z,39.37
2019-03-23T14:49:33.731Z,45.80
2019-03-23T14:52:02.955Z,45.60
2019-03-23T14:54:31.447Z,47.53
2019-03-23T14:56:59.886Z,50.10
2019-03-23T14:59:28.414Z,46.83
2019-03-23T15:01:56.867Z,43.20
2019-03-23T15:04:25.352Z,37.43
2019-03-23T15:06:53.883Z,39.10
2019-03-23T15:09:22.330Z,40.10
2019-03-23T15:11:50.815Z,43.63
2019-03-23T15:14:19.246Z,42.37
2019-03-23T15:16:47.709Z,42.60
2019-03-23T15:19:16.162Z,36.43
2019-03-23T15:21:45.419Z,46.77
2019-03-23T15:24:13.867Z,46.90
2019-03-23T15:26:42.373Z,46.93
2019-03-23T15:29:10.867Z,44.40
2019-03-23T15:31:40.079Z,48.43
2019-03-23T15:34:08.550Z,39.30
2019-03-23T15:36:37.084Z,35.30
2019-03-23T15:39:07.561Z,45.07
2019-03-23T15:41:36.844Z,55.20
2019-03-23T15:44:05.436Z,49.27
2019-03-23T15:46:33.884Z,44.20
2019-03-23T15:49:02.358Z,45.70
2019-03-23T15:51:30.826Z,40.93
2019-03-23T15:53:59.344Z,44.20
2019-03-23T15:56:27.785Z,46.40
2019-03-23T15:58:56.235Z,46.00
2019-03-23T16:01:24.712Z,46.47
2019-03-23T16:03:53.259Z,41.87
2019-03-23T16:06:21.971Z,36.40
2019-03-23T16:08:50.495Z,41.50
2019-03-23T16:11:18.972Z,42.00
2019-03-23T16:13:47.477Z,38.10
2019-03-23T16:16:15.917Z,30.30
2019-03-23T16:18:44.448Z,33.23
2019-03-23T16:21:12.900Z,33.97
2019-03-23T16:23:41.371Z,39.27
2019-03-23T16:26:09.839Z,35.43
2019-03-23T16:28:38.393Z,37.27
2019-03-23T16:31:06.846Z,37.43
2019-03-23T16:33:35.800Z,38.17
2019-03-23T16:36:04.254Z,37.10
2019-03-23T16:38:32.747Z,44.50
2019-03-23T16:41:01.245Z,35.00
2019-03-23T16:43:29.788Z,41.67
2019-03-23T16:45:58.236Z,47.57
2019-03-23T16:48:26.680Z,41.43
2019-03-23T16:50:56.664Z,44.87
2019-03-23T16:53:25.144Z,45.63
2019-03-23T16:55:53.642Z,52.13
2019-03-23T16:58:22.228Z,55.20
2019-03-23T17:00:50.693Z,41.10
2019-03-23T17:03:19.237Z,48.03
2019-03-23T17:05:47.680Z,44.67
2019-03-23T17:08:16.261Z,50.43
2019-03-23T17:10:44.704Z,40.93
2019-03-23T17:13:13.138Z,45.73
2019-03-23T17:15:41.579Z,43.40
2019-03-23T17:18:10.122Z,48.10
2019-03-23T17:20:38.673Z,51.10
2019-03-23T17:23:07.132Z,51.87
2019-03-23T17:25:37.618Z,45.47
2019-03-23T17:28:06.271Z,50.80
2019-03-23T17:30:34.731Z,53.67
2019-03-23T17:33:03.418Z,55.43
2019-03-23T17:35:32.924Z,54.50
2019-03-23T17:38:01.372Z,58.60
2019-03-23T17:40:29.836Z,53.00
2019-03-23T17:43:05.876Z,64.30
2019-03-23T17:45:28.554Z,54.80
2019-03-23T17:47:56.998Z,61.53
2019-03-23T17:50:25.495Z,53.77
2019-03-23T17:52:53.946Z,59.57
2019-03-23T17:55:22.422Z,51.83
2019-03-23T17:57:50.883Z,59.13
2019-03-23T18:00:19.669Z,53.50
2019-03-23T18:02:48.124Z,53.60
2019-03-23T18:05:16.593Z,66.10
2019-03-23T18:07:45.131Z,65.87
2019-03-23T18:10:14.893Z,66.50
2019-03-23T18:12:44.024Z,66.30
2019-03-23T18:15:13.020Z,67.60
2019-03-23T18:17:41.626Z,72.07
2019-03-23T18:20:10.448Z,64.60
2019-03-23T18:22:39.310Z,61.00
2019-03-23T18:25:07.911Z,68.93
2019-03-23T18:27:36.374Z,70.67
2019-03-23T18:30:16.608Z,65.17
2019-03-23T18:32:45.073Z,62.93
2019-03-23T18:35:13.525Z,67.30
2019-03-23T18:37:42.056Z,65.57
2019-03-23T18:40:10.613Z,73.10
2019-03-23T18:42:39.106Z,71.43
2019-03-23T18:45:07.670Z,74.53
2019-03-23T18:47:36.269Z,69.27
2019-03-23T18:50:06.356Z,71.37
2019-03-23T18:52:34.866Z,65.80
2019-03-23T18:55:04.638Z,69.40
2019-03-23T18:57:33.409Z,66.93
2019-03-23T19:00:01.933Z,69.33
2019-03-23T19:02:30.417Z,66.70
2019-03-23T19:04:58.890Z,67.37
2019-03-23T19:07:27.381Z,72.37
2019-03-23T19:09:55.851Z,63.33
2019-03-23T19:12:24.467Z,72.80
2019-03-23T19:14:52.974Z,68.87
2019-03-23T19:17:21.714Z,69.00
2019-03-23T19:19:50.150Z,73.20
2019-03-23T19:22:18.643Z,91.13
2019-03-23T19:24:47.116Z,74.03
2019-03-23T19:27:15.542Z,63.00
2019-03-23T19:29:44.535Z,82.73
2019-03-23T19:32:13.072Z,86.07
2019-03-23T19:34:41.588Z,83.53
2019-03-23T19:37:10.042Z,79.93
2019-03-23T19:39:38.481Z,85.27
2019-03-23T19:42:06.957Z,81.20
2019-03-23T19:44:35.449Z,86.50
2019-03-23T19:47:03.978Z,78.80
2019-03-23T19:49:32.663Z,83.00
2019-03-23T19:52:02.048Z,80.63
2019-03-23T19:54:30.606Z,80.90
2019-03-23T19:56:59.073Z,80.13
2019-03-23T19:59:27.890Z,78.40
2019-03-23T20:01:56.464Z,81.23
2019-03-23T20:04:24.983Z,75.33
2019-03-23T20:06:53.459Z,79.23
2019-03-23T20:09:21.952Z,79.50
2019-03-23T20:11:50.430Z,74.90
2019-03-23T20:14:18.875Z,74.30
2019-03-23T20:16:47.355Z,69.10
2019-03-23T20:19:15.878Z,69.47
2019-03-23T20:21:44.370Z,64.53
2019-03-23T20:24:12.891Z,74.30
2019-03-23T20:26:41.363Z,74.53
2019-03-23T20:29:09.813Z,65.63
2019-03-23T20:31:38.270Z,71.23
2019-03-23T20:34:06.776Z,80.00
2019-03-23T20:36:35.349Z,81.23
2019-03-23T20:39:05.397Z,83.17
2019-03-23T20:41:33.868Z,87.80
2019-03-23T20:44:09.404Z,82.17
2019-03-23T20:46:33.030Z,92.60
2019-03-23T20:49:02.219Z,91.50
2019-03-23T20:51:30.691Z,98.73
2019-03-23T20:53:59.161Z,89.67
2019-03-23T20:56:27.643Z,94.10
2019-03-23T20:58:56.111Z,100.30
2019-03-23T21:01:24.689Z,115.80
2019-03-23T21:03:53.155Z,109.80
2019-03-23T21:06:21.688Z,101.00
2019-03-23T21:08:50.218Z,112.83
2019-03-23T21:11:19.029Z,103.50
2019-03-23T21:13:47.740Z,101.63
2019-03-23T21:16:17.150Z,102.87
2019-03-23T21:18:45.590Z,117.60
2019-03-23T21:21:14.038Z,93.77
2019-03-23T21:23:42.962Z,109.93
2019-03-23T21:26:11.447Z,108.97
2019-03-23T21:28:39.923Z,113.83
2019-03-23T21:31:08.466Z,101.50
2019-03-23T21:33:39.012Z,115.63
2019-03-23T21:36:07.095Z,105.03
2019-03-23T21:38:35.542Z,117.13
2019-03-23T21:41:04.107Z,120.33
2019-03-23T21:43:32.624Z,100.83
2019-03-23T21:46:01.081Z,116.47
2019-03-23T21:48:29.563Z,123.97
2019-03-23T21:50:58.015Z,116.73
2019-03-23T21:53:26.474Z,115.43
2019-03-23T21:55:54.986Z,107.70
2019-03-23T21:58:23.466Z,109.67
2019-03-23T22:00:51.935Z,116.70
2019-03-23T22:03:20.418Z,106.30
2019-03-23T22:05:48.916Z,111.83
2019-03-23T22:08:17.377Z,114.10
2019-03-23T22:10:45.814Z,106.00
2019-03-23T22:13:15.166Z,115.50
2019-03-23T22:15:43.603Z,106.47
2019-03-23T22:18:12.084Z,108.27
2019-03-23T22:20:40.538Z,115.70
2019-03-23T22:23:09.004Z,113.13
2019-03-23T22:25:37.467Z,116.20
2019-03-23T22:28:06.030Z,126.70
2019-03-23T22:30:34.542Z,125.13
2019-03-23T22:33:04.056Z,121.47
2019-03-23T22:35:32.502Z,133.17
2019-03-23T22:38:01.360Z,135.40
2019-03-23T22:40:29.865Z,129.77
2019-03-23T22:42:58.308Z,121.43
2019-03-23T22:45:26.788Z,115.37
2019-03-23T22:47:55.248Z,137.20
2019-03-23T22:50:23.749Z,124.43
2019-03-23T22:52:52.220Z,133.50
2019-03-23T22:55:20.694Z,143.33
2019-03-23T22:57:49.140Z,134.20
2019-03-23T23:00:21.095Z,148.10
2019-03-23T23:02:49.688Z,155.77
2019-03-23T23:05:18.188Z,148.23
2019-03-23T23:07:46.622Z,151.70
2019-03-23T23:10:15.214Z,134.70
2019-03-23T23:12:43.674Z,145.33
2019-03-23T23:15:12.378Z,141.83
2019-03-23T23:17:40.841Z,142.03
2019-03-23T23:20:09.635Z,153.07
2019-03-23T23:22:38.109Z,141.77
2019-03-23T23:25:07.671Z,134.53
2019-03-23T23:27:36.517Z,133.97
2019-03-23T23:30:07.372Z,136.50
2019-03-23T23:32:35.818Z,120.30
2019-03-23T23:35:08.237Z,131.77
2019-03-23T23:37:36.696Z,126.93
2019-03-23T23:40:07.522Z,111.90
2019-03-23T23:42:36.037Z,112.10
2019-03-23T23:45:14.901Z,104.63
2019-03-23T23:47:37.406Z,107.47
2019-03-23T23:50:07.592Z,122.70
2019-03-23T23:52:36.075Z,124.10
2019-03-23T23:55:05.959Z,127.63
2019-03-23T23:57:34.410Z,121.90
